Time;durP1;ratioP1;P1;durP2;ratioP2;P2;SDS_P1;SDS_P2;PMS_P1;PMS_P2;Temp;Humidity;BMP_temperature;BMP_pressure;BME280_temperature;BME280_humidity;BME280_pressure;Samples;Min_cycle;Max_cycle;Signal;HPM_P1;HPM_P2
2023/05/11 00:00:36;;;;;;;3.92;1.45;;;;;;;23.76;44.98;101341.81;5042498;27;96852;-77
2023/05/11 00:03:02;;;;;;;2.38;1.70;;;;;;;23.76;45.03;101340.97;5042481;27;96790;-77
2023/05/11 00:05:29;;;;;;;1.85;1.40;;;;;;;23.76;44.59;101335.47;5046074;27;99333;-77
2023/05/11 00:07:55;;;;;;;1.50;1.40;;;;;;;23.76;44.82;101332.72;5046689;27;98118;-77
2023/05/11 00:10:22;;;;;;;2.53;1.90;;;;;;;23.76;44.64;101330.00;5034465;27;101195;-77
2023/05/11 00:12:49;;;;;;;1.67;1.42;;;;;;;23.76;44.80;101330.00;5041656;27;97025;-77
2023/05/11 00:15:15;;;;;;;2.42;1.52;;;;;;;23.76;44.97;101330.00;5049795;27;96948;-77
2023/05/11 00:17:42;;;;;;;2.97;1.45;;;;;;;23.76;44.79;101333.59;5047616;27;96835;-77
2023/05/11 00:20:09;;;;;;;2.15;1.40;;;;;;;23.75;44.89;101322.81;5048941;27;96785;-77
2023/05/11 00:22:36;;;;;;;1.98;1.50;;;;;;;23.74;44.79;101321.94;5041513;27;98100;-77
2023/05/11 00:25:03;;;;;;;2.22;1.40;;;;;;;23.76;44.68;101327.25;5040023;27;96608;-77
2023/05/11 00:27:29;;;;;;;1.60;1.30;;;;;;;23.75;44.93;101325.53;5038294;27;99197;-77
2023/05/11 00:29:56;;;;;;;1.75;1.35;;;;;;;23.75;44.58;101325.53;5036421;27;98547;-77
2023/05/11 00:32:23;;;;;;;2.15;1.45;;;;;;;23.75;44.83;101325.53;5047677;27;96967;-77
2023/05/11 00:34:49;;;;;;;1.90;1.40;;;;;;;23.74;44.96;101327.44;5044797;27;99057;-77
2023/05/11 00:37:16;;;;;;;2.28;1.50;;;;;;;23.75;44.90;101325.53;5045354;27;98017;-77
2023/05/11 00:39:43;;;;;;;1.70;1.35;;;;;;;23.74;44.85;101324.69;5046843;27;98586;-77
2023/05/11 00:42:10;;;;;;;1.60;1.50;;;;;;;23.75;44.73;101322.81;5023791;27;97009;-77
2023/05/11 00:44:36;;;;;;;2.03;1.25;;;;;;;23.74;44.87;101321.09;5036887;27;96830;-77
2023/05/11 00:47:03;;;;;;;1.70;1.20;;;;;;;23.75;44.80;101317.31;5051065;27;99470;-77
2023/05/11 00:49:30;;;;;;;1.15;1.00;;;;;;;23.74;44.62;101323.84;5040861;27;97244;-77
2023/05/11 00:51:57;;;;;;;2.53;1.27;;;;;;;23.73;44.60;101322.13;5048986;27;97046;-77
2023/05/11 00:54:24;;;;;;;1.67;1.27;;;;;;;23.74;44.63;101329.31;5054820;27;97897;-77
2023/05/11 00:56:50;;;;;;;2.00;1.30;;;;;;;23.74;44.75;101321.94;5030280;27;97969;-77
2023/05/11 00:59:17;;;;;;;1.73;1.30;;;;;;;23.74;44.92;101324.69;5044761;27;96650;-77
2023/05/11 01:01:45;;;;;;;1.98;1.33;;;;;;;23.74;44.49;101323.84;5047914;27;97184;-77
2023/05/11 01:04:12;;;;;;;1.80;1.38;;;;;;;23.73;44.85;101327.63;5045791;27;96915;-77
2023/05/11 01:07:09;;;;;;;1.95;1.35;;;;;;;23.72;44.61;101326.75;5047094;27;99024;-77
2023/05/11 01:09:45;;;;;;;1.80;1.23;;;;;;;23.70;44.55;101320.59;5043754;27;98776;-77
2023/05/11 01:12:32;;;;;;;1.75;1.40;;;;;;;23.72;44.67;101325.91;5048116;27;96941;-77
2023/05/11 01:15:10;;;;;;;1.60;1.30;;;;;;;23.71;44.75;101332.44;5046832;27;96948;-77
2023/05/11 01:18:00;;;;;;;2.40;1.83;;;;;;;23.71;44.66;101336.03;5029508;27;99548;-77
2023/05/11 01:20:29;;;;;;;1.45;1.20;;;;;;;23.69;44.73;101332.63;5050733;27;99431;-77
2023/05/11 01:23:24;;;;;;;1.92;1.38;;;;;;;23.70;45.30;101339.81;5041974;27;97153;-77
2023/05/11 01:26:06;;;;;;;1.42;1.27;;;;;;;23.69;44.94;101342.72;5055418;27;96757;-77
2023/05/11 01:29:02;;;;;;;1.63;1.10;;;;;;;23.68;44.83;101336.41;5039889;27;99504;-77
2023/05/11 01:31:32;;;;;;;;;;;;;;;23.63;44.70;101337.97;5050150;27;99007;-77
2023/05/11 01:34:15;;;;;;;1.73;1.10;;;;;;;23.64;44.99;101339.69;5044129;27;97086;-77
2023/05/11 01:36:57;;;;;;;1.40;1.27;;;;;;;23.64;44.94;101337.78;5043682;27;97226;-77
2023/05/11 01:39:38;;;;;;;1.95;1.30;;;;;;;23.65;44.90;101341.38;5054385;27;99222;-77
2023/05/11 01:42:09;;;;;;;1.80;1.00;;;;;;;23.65;44.84;101335.91;5053081;27;97340;-77
2023/05/11 01:44:43;;;;;;;1.30;1.20;;;;;;;23.65;44.88;101344.13;5050909;27;97039;-77
2023/05/11 01:47:12;;;;;;;1.63;1.23;;;;;;;23.65;44.84;101349.63;5053401;27;97069;-77
2023/05/11 01:49:42;;;;;;;1.75;1.25;;;;;;;23.66;44.55;101340.34;5029318;27;98525;-77
2023/05/11 01:52:10;;;;;;;1.17;1.08;;;;;;;23.66;44.77;101343.94;5044023;27;98806;-77
2023/05/11 01:54:39;;;;;;;1.67;1.10;;;;;;;23.66;44.66;101349.44;5045762;27;96781;-77
2023/05/11 01:57:06;;;;;;;1.85;1.40;;;;;;;23.66;44.69;101343.09;5033139;27;96977;-77
2023/05/11 01:59:35;;;;;;;2.75;1.10;;;;;;;23.66;44.70;101349.44;5059872;27;97017;-77
2023/05/11 02:02:03;;;;;;;1.70;1.20;;;;;;;23.67;44.77;101353.88;5046345;27;96991;-77
2023/05/11 02:04:30;;;;;;;1.65;1.48;;;;;;;23.67;44.85;101356.63;5050662;27;96875;-77
2023/05/11 02:07:00;;;;;;;1.58;1.20;;;;;;;23.66;44.69;101354.91;5041107;27;97189;-77
2023/05/11 02:09:29;;;;;;;1.75;1.08;;;;;;;23.66;44.69;101354.91;5041223;27;100308;-77
2023/05/11 02:11:57;;;;;;;1.30;0.95;;;;;;;23.66;44.67;101349.44;5025242;27;100755;-77
2023/05/11 02:14:27;;;;;;;1.70;1.20;;;;;;;23.66;44.78;101349.44;5043995;27;97136;-77
2023/05/11 02:16:56;;;;;;;1.30;1.00;;;;;;;23.68;44.76;101357.47;5047548;27;97004;-77
2023/05/11 02:19:24;;;;;;;1.20;1.08;;;;;;;23.66;44.73;101349.44;5059953;27;98943;-77
2023/05/11 02:21:52;;;;;;;1.85;0.98;;;;;;;23.67;44.71;101351.16;5051011;27;96708;-77
2023/05/11 02:24:20;;;;;;;1.83;1.13;;;;;;;23.67;44.89;101353.03;5060330;27;97178;-77
2023/05/11 02:26:46;;;;;;;1.58;1.00;;;;;;;23.66;44.70;101348.59;5045792;27;96805;-77
2023/05/11 02:29:13;;;;;;;1.92;1.17;;;;;;;23.68;44.69;101349.25;5045694;27;99812;-77
2023/05/11 02:31:43;;;;;;;1.58;1.10;;;;;;;23.67;44.89;101345.66;5049189;27;100033;-77
2023/05/11 02:34:37;;;;;;;1.35;1.02;;;;;;;23.66;44.83;101341.22;5044218;27;96834;-77
2023/05/11 02:37:08;;;;;;;1.67;1.30;;;;;;;23.67;44.66;101339.31;5045916;27;96904;-77
2023/05/11 02:39:37;;;;;;;1.83;0.90;;;;;;;23.66;44.78;101338.47;5017788;27;99590;-77
2023/05/11 02:42:17;;;;;;;1.25;1.15;;;;;;;23.66;44.42;101337.63;5046697;27;97247;-77
2023/05/11 02:44:53;;;;;;;1.55;1.08;;;;;;;23.66;44.69;101332.13;5034634;27;97358;-77
2023/05/11 02:47:24;;;;;;;1.33;1.05;;;;;;;23.65;44.73;101338.66;5055453;27;96673;-77
2023/05/11 02:49:54;;;;;;;2.10;1.08;;;;;;;23.65;44.60;101334.00;5047321;27;97630;-77
2023/05/11 02:52:26;;;;;;;1.30;0.90;;;;;;;23.66;44.87;101334.88;5025819;27;99306;-77
2023/05/11 02:54:55;;;;;;;1.55;1.13;;;;;;;23.65;44.95;101346.88;5034395;27;96872;-77
2023/05/11 02:57:23;;;;;;;1.48;1.15;;;;;;;23.65;44.73;101330.41;5056468;27;96670;-77
2023/05/11 02:59:50;;;;;;;1.58;1.00;;;;;;;23.65;44.78;101335.91;5047350;27;97496;-77
2023/05/11 03:02:17;;;;;;;1.38;1.00;;;;;;;23.65;44.70;101341.38;5025302;27;97553;-77
2023/05/11 03:04:44;;;;;;;1.70;1.00;;;;;;;23.64;44.13;101337.78;5046846;27;96778;-77
2023/05/11 03:07:11;;;;;;;1.25;1.00;;;;;;;23.65;44.39;101339.50;5024721;27;97205;-77
2023/05/11 03:09:38;;;;;;;2.47;1.23;;;;;;;23.65;44.30;101352.34;5044576;27;96889;-77
2023/05/11 03:12:06;;;;;;;1.00;0.88;;;;;;;23.64;44.49;101336.94;5035351;27;99658;-77
2023/05/11 03:14:35;;;;;;;1.65;1.20;;;;;;;23.65;44.53;101349.63;5044380;27;97488;-77
2023/05/11 03:17:03;;;;;;;1.23;1.10;;;;;;;23.65;44.76;101353.22;5042878;27;96628;-77
2023/05/11 03:19:30;;;;;;;1.95;1.10;;;;;;;23.65;44.61;101352.34;5037676;27;100158;-77
2023/05/11 03:21:59;;;;;;;1.73;0.90;;;;;;;23.64;44.71;101342.44;5033321;27;99526;-77
2023/05/11 03:24:26;;;;;;;1.52;1.02;;;;;;;23.64;44.64;101348.75;5027089;27;96820;-77
2023/05/11 03:26:55;;;;;;;1.20;1.10;;;;;;;23.65;44.77;101352.34;5016702;27;96886;-77
2023/05/11 03:29:25;;;;;;;1.15;1.00;;;;;;;23.64;44.40;101356.13;5039916;27;96931;-77
2023/05/11 03:31:53;;;;;;;1.52;1.08;;;;;;;23.64;44.77;101350.66;5042409;27;99044;-77
2023/05/11 03:34:21;;;;;;;1.15;1.02;;;;;;;23.64;44.50;101350.66;5016710;27;96905;-77
2023/05/11 03:36:49;;;;;;;1.10;0.88;;;;;;;23.63;44.68;101348.94;5049956;27;96948;-77
2023/05/11 03:39:16;;;;;;;1.35;0.90;;;;;;;23.63;44.37;101351.69;5042966;27;100302;-77
2023/05/11 03:41:49;;;;;;;1.20;1.00;;;;;;;23.64;44.74;101350.66;5042635;27;96764;-77
2023/05/11 03:44:19;;;;;;;1.20;1.00;;;;;;;23.64;44.80;101350.66;5025608;27;97383;-77
2023/05/11 03:46:49;;;;;;;2.05;1.08;;;;;;;23.63;44.47;101337.97;5061113;27;96750;-77
2023/05/11 03:49:18;;;;;;;1.20;1.00;;;;;;;23.62;44.49;101334.38;5016117;27;97906;-77
2023/05/11 03:51:46;;;;;;;1.00;0.90;;;;;;;23.62;44.51;101342.59;5044554;27;97249;-77
2023/05/11 03:54:13;;;;;;;1.13;1.02;;;;;;;23.62;44.43;101342.59;5044204;27;97450;-77
2023/05/11 03:56:39;;;;;;;1.35;0.90;;;;;;;23.62;44.50;101342.59;5046569;27;97673;-77
2023/05/11 03:59:08;;;;;;;1.58;1.10;;;;;;;23.62;44.48;101348.09;5044878;27;97673;-77
2023/05/11 04:01:35;;;;;;;1.15;1.05;;;;;;;23.63;44.56;101347.06;5029363;27;98597;-77
2023/05/11 04:04:01;;;;;;;1.10;0.88;;;;;;;23.62;44.57;101353.56;5022635;27;96877;-77
2023/05/11 04:06:28;;;;;;;1.40;1.10;;;;;;;23.63;44.68;101351.69;5042309;27;97596;-77
2023/05/11 04:09:04;;;;;;;1.08;0.93;;;;;;;23.62;44.71;101349.97;5045840;27;96885;-77
2023/05/11 04:11:34;;;;;;;1.40;1.00;;;;;;;23.61;45.05;101349.13;5045716;27;97489;-77
2023/05/11 04:14:00;;;;;;;1.25;1.00;;;;;;;23.62;44.72;101353.56;5048048;27;96755;-77
2023/05/11 04:16:27;;;;;;;1.67;0.98;;;;;;;23.62;44.37;101352.72;5046316;27;96843;-77
2023/05/11 04:18:53;;;;;;;1.20;1.05;;;;;;;23.61;44.43;101345.53;5045472;27;97268;-77
2023/05/11 04:21:20;;;;;;;1.20;1.10;;;;;;;23.62;44.50;101359.06;5051469;27;97775;-77
2023/05/11 04:23:47;;;;;;;1.05;0.95;;;;;;;23.61;44.57;101353.75;5039856;27;96769;-77
2023/05/11 04:26:13;;;;;;;1.10;0.90;;;;;;;23.61;44.38;101357.34;5038493;27;97089;-77
2023/05/11 04:28:40;;;;;;;1.45;1.20;;;;;;;23.61;44.49;101360.09;5033679;27;99612;-77
2023/05/11 04:31:07;;;;;;;1.08;0.80;;;;;;;23.61;44.38;101364.72;5044409;27;96883;-77
2023/05/11 04:33:33;;;;;;;1.00;0.90;;;;;;;23.60;44.39;101358.38;5050405;27;97104;-76
2023/05/11 04:36:00;;;;;;;1.25;1.10;;;;;;;23.61;44.25;101362.84;5048059;27;97262;-77
2023/05/11 04:38:27;;;;;;;1.33;1.10;;;;;;;23.61;44.48;101361.97;5048350;27;99715;-77
2023/05/11 04:40:53;;;;;;;3.58;1.10;;;;;;;23.62;44.46;101363.69;5046146;27;97253;-77
2023/05/11 04:43:21;;;;;;;1.38;1.10;;;;;;;23.61;44.50;101362.84;5037839;27;96891;-77
2023/05/11 04:45:49;;;;;;;1.00;0.90;;;;;;;23.61;44.47;101354.63;5041904;27;97220;-77
2023/05/11 04:48:21;;;;;;;1.60;1.35;;;;;;;23.61;44.47;101353.75;5046380;27;98791;-77
2023/05/11 04:50:48;;;;;;;1.50;0.90;;;;;;;23.61;44.60;101356.50;5045152;27;97781;-77
2023/05/11 04:53:17;;;;;;;1.30;1.13;;;;;;;23.62;44.48;101352.72;5044505;27;96720;-77
2023/05/11 04:55:45;;;;;;;2.10;1.08;;;;;;;23.61;44.35;101356.50;5025570;27;97162;-77
2023/05/11 04:58:11;;;;;;;1.08;0.98;;;;;;;23.61;44.53;101353.75;5045545;27;97606;-77
2023/05/11 05:00:38;;;;;;;0.70;0.70;;;;;;;23.61;44.44;101362.84;5045469;27;100134;-77
2023/05/11 05:03:04;;;;;;;1.60;1.13;;;;;;;23.62;44.56;101363.69;5050055;27;96797;-77
2023/05/11 05:05:31;;;;;;;1.95;1.10;;;;;;;23.62;44.46;101358.22;5041469;27;96774;-77
2023/05/11 05:07:58;;;;;;;1.45;1.02;;;;;;;23.62;44.20;101363.69;5044311;27;97470;-77
2023/05/11 05:10:24;;;;;;;1.08;0.90;;;;;;;23.62;44.32;101366.44;5048975;27;97854;-77
2023/05/11 05:12:51;;;;;;;1.17;0.90;;;;;;;23.62;44.47;101370.03;5059450;27;96877;-77
2023/05/11 05:15:18;;;;;;;1.50;0.90;;;;;;;23.63;44.49;101376.38;5032023;27;97033;-77
2023/05/11 05:17:45;;;;;;;1.20;1.10;;;;;;;23.62;44.35;101371.91;5047378;27;96813;-77
2023/05/11 05:20:12;;;;;;;1.58;1.15;;;;;;;23.63;44.34;101379.09;5048189;27;97359;-77
2023/05/11 05:22:38;;;;;;;1.23;0.80;;;;;;;23.63;44.58;101377.22;5044492;27;97292;-77
2023/05/11 05:25:05;;;;;;;1.08;0.88;;;;;;;23.63;44.54;101379.97;5049826;27;97172;-77
2023/05/11 05:27:32;;;;;;;1.45;0.95;;;;;;;23.64;44.29;101383.56;5048271;27;98992;-77
2023/05/11 05:30:03;;;;;;;1.00;0.90;;;;;;;23.63;44.46;101385.44;5055855;27;100445;-77
2023/05/11 05:32:30;;;;;;;1.23;1.08;;;;;;;23.63;44.42;101384.59;5041338;27;96822;-77
2023/05/11 05:34:57;;;;;;;1.23;0.90;;;;;;;23.63;44.42;101388.19;5027354;27;97722;-77
2023/05/11 05:37:25;;;;;;;1.33;0.95;;;;;;;23.64;44.58;101383.56;5043861;27;99199;-77
2023/05/11 05:39:51;;;;;;;1.05;0.95;;;;;;;23.64;44.45;101389.91;5046919;27;98513;-77
2023/05/11 05:42:18;;;;;;;1.30;1.10;;;;;;;23.64;44.25;101400.00;5036021;27;96661;-77
2023/05/11 05:44:45;;;;;;;0.73;0.73;;;;;;;23.64;44.44;101397.28;5046806;27;96890;-77
2023/05/11 05:47:12;;;;;;;1.20;1.10;;;;;;;23.64;44.50;101402.75;5049216;27;97699;-77
2023/05/11 05:49:39;;;;;;;1.48;1.20;;;;;;;23.65;44.27;101412.69;5029954;27;99928;-77
2023/05/11 05:52:06;;;;;;;1.40;1.15;;;;;;;23.65;44.12;101413.53;5047193;27;96897;-77
2023/05/11 05:54:33;;;;;;;1.10;1.00;;;;;;;23.65;44.00;101413.53;5047069;27;97255;-77
2023/05/11 05:56:59;;;;;;;1.40;1.23;;;;;;;23.65;44.22;101409.94;5046077;27;98937;-77
2023/05/11 05:59:26;;;;;;;1.13;1.02;;;;;;;23.66;44.35;101417.13;5052282;27;97267;-77
2023/05/11 06:01:55;;;;;;;2.15;1.00;;;;;;;23.66;44.29;101411.66;5049201;27;97454;-77
2023/05/11 06:04:23;;;;;;;1.08;0.98;;;;;;;23.66;44.40;101411.66;5040542;27;96972;-77
2023/05/11 06:06:49;;;;;;;1.48;1.00;;;;;;;23.65;44.28;101415.44;5047196;27;96808;-77
2023/05/11 06:09:16;;;;;;;1.35;1.00;;;;;;;23.65;44.36;101413.53;5046894;27;96870;-77
2023/05/11 06:11:43;;;;;;;1.10;1.00;;;;;;;23.66;44.40;101414.41;5047141;27;96855;-77
2023/05/11 06:14:10;;;;;;;1.40;1.02;;;;;;;23.65;44.28;101413.53;5044173;27;98963;-77
2023/05/11 06:16:37;;;;;;;1.17;1.00;;;;;;;23.65;44.41;101416.28;5049118;27;100273;-77
2023/05/11 06:19:04;;;;;;;0.98;0.90;;;;;;;23.66;44.12;101417.13;5043186;27;99599;-77
2023/05/11 06:21:31;;;;;;;1.20;1.10;;;;;;;23.65;44.37;101419.03;5037662;27;97162;-77
2023/05/11 06:23:57;;;;;;;1.40;1.00;;;;;;;23.66;44.22;101419.88;5051982;27;97600;-77
2023/05/11 06:26:27;;;;;;;1.25;1.15;;;;;;;23.65;44.47;101421.78;5048067;27;99106;-77
2023/05/11 06:28:54;;;;;;;1.35;1.10;;;;;;;23.65;44.51;101421.78;5032774;27;97143;-77
2023/05/11 06:31:23;;;;;;;1.17;1.05;;;;;;;23.65;44.30;101421.78;5043242;27;97093;-77
2023/05/11 06:33:51;;;;;;;1.58;1.08;;;;;;;23.65;44.36;101424.50;5049388;27;96951;-77
2023/05/11 06:36:22;;;;;;;1.40;1.25;;;;;;;23.65;44.21;101429.13;5037888;27;96835;-77
2023/05/11 06:38:48;;;;;;;1.45;1.05;;;;;;;23.65;44.36;101427.25;5035037;27;100110;-77
2023/05/11 06:41:15;;;;;;;1.15;1.05;;;;;;;23.66;44.30;101431.69;5041638;27;97242;-77
2023/05/11 06:43:42;;;;;;;1.30;1.10;;;;;;;23.65;44.23;101424.50;5039247;27;96867;-77
2023/05/11 06:46:26;;;;;;;1.40;1.23;;;;;;;23.65;44.41;101434.63;5042626;27;99187;-77
2023/05/11 06:48:53;;;;;;;1.17;1.08;;;;;;;23.65;44.48;101434.63;5048374;27;100171;-77
2023/05/11 06:51:20;;;;;;;1.55;1.10;;;;;;;23.65;44.42;101429.13;5034912;27;96812;-77
2023/05/11 06:53:47;;;;;;;1.35;1.08;;;;;;;23.66;44.11;101430.84;5052189;27;97294;-77
2023/05/11 06:56:14;;;;;;;1.20;1.10;;;;;;;23.64;44.25;101435.66;5039602;27;98993;-77
2023/05/11 06:58:41;;;;;;;1.88;1.27;;;;;;;23.65;44.12;101437.38;5029736;27;99456;-77
2023/05/11 07:01:08;;;;;;;1.23;0.90;;;;;;;23.64;44.18;101430.19;5031330;27;96975;-77
2023/05/11 07:03:35;;;;;;;1.30;1.20;;;;;;;23.64;44.31;101436.50;5042682;27;97043;-77
2023/05/11 07:06:02;;;;;;;1.42;1.08;;;;;;;23.64;44.25;101436.50;5030338;27;96755;-77
2023/05/11 07:08:28;;;;;;;1.33;1.02;;;;;;;23.64;44.05;101439.25;5035897;27;97511;-77
2023/05/11 07:10:55;;;;;;;1.40;1.20;;;;;;;23.65;44.18;101448.34;5051999;27;97281;-77
2023/05/11 07:13:21;;;;;;;2.90;1.20;;;;;;;23.65;44.37;101449.19;5034253;27;96941;-77
2023/05/11 07:15:49;;;;;;;1.20;1.10;;;;;;;23.64;44.27;101444.75;5015504;27;100124;-77
2023/05/11 07:18:15;;;;;;;1.58;1.25;;;;;;;23.65;44.15;101445.59;5034915;27;98246;-77
2023/05/11 07:20:42;;;;;;;1.63;1.20;;;;;;;23.65;44.09;101445.59;5037700;27;96679;-77
2023/05/11 07:23:09;;;;;;;1.40;1.30;;;;;;;23.65;44.43;101445.59;5044592;27;96821;-77
2023/05/11 07:25:35;;;;;;;1.75;1.33;;;;;;;23.65;44.46;101451.09;5035540;27;96921;-77
2023/05/11 07:28:02;;;;;;;1.25;1.15;;;;;;;23.65;44.21;101451.09;5041967;27;98999;-77
2023/05/11 07:30:29;;;;;;;1.88;1.42;;;;;;;23.64;44.24;101441.16;5046284;27;96798;-78
2023/05/11 07:32:55;;;;;;;1.63;1.38;;;;;;;23.64;44.24;101450.22;5032762;27;96995;-77
2023/05/11 07:35:22;;;;;;;1.77;1.42;;;;;;;23.65;44.16;101453.81;5049801;27;96870;-77
2023/05/11 07:37:49;;;;;;;1.95;1.45;;;;;;;23.65;44.19;101454.69;5043774;27;96878;-78
2023/05/11 07:40:16;;;;;;;1.77;1.23;;;;;;;23.64;44.41;101450.22;5033708;27;96702;-77
2023/05/11 07:42:44;;;;;;;1.80;1.50;;;;;;;23.64;44.19;101449.38;5017330;28;96869;-77
2023/05/11 07:45:11;;;;;;;1.60;1.50;;;;;;;23.64;44.35;101450.22;5034633;27;98666;-77
2023/05/11 07:47:37;;;;;;;1.52;1.42;;;;;;;23.64;44.18;101450.22;5034213;27;98372;-77
2023/05/11 07:50:05;;;;;;;1.80;1.50;;;;;;;23.64;44.27;101452.13;5033973;27;96826;-77
2023/05/11 07:52:31;;;;;;;2.30;1.30;;;;;;;23.64;44.46;101449.38;5040726;27;96901;-77
2023/05/11 07:54:58;;;;;;;1.67;1.35;;;;;;;23.64;44.59;101450.22;5052939;27;98055;-77
2023/05/11 07:57:24;;;;;;;2.35;1.40;;;;;;;23.64;44.25;101455.72;5040262;27;96747;-77
2023/05/11 07:59:51;;;;;;;1.90;1.48;;;;;;;23.65;43.88;101451.09;5052866;27;96658;-77
2023/05/11 08:02:17;;;;;;;1.80;1.52;;;;;;;23.65;44.55;101445.59;5055829;27;97308;-77
2023/05/11 08:04:45;;;;;;;1.77;1.40;;;;;;;23.65;44.11;101451.09;5053927;27;97954;-77
2023/05/11 08:07:12;;;;;;;1.55;1.35;;;;;;;23.65;44.16;101446.44;5042999;27;99242;-77
2023/05/11 08:09:39;;;;;;;3.05;1.30;;;;;;;23.65;44.03;101451.94;5057388;27;97287;-77
2023/05/11 08:12:06;;;;;;;1.80;1.50;;;;;;;23.66;44.05;101455.53;5045526;27;97214;-77
2023/05/11 08:14:32;;;;;;;1.63;1.40;;;;;;;23.65;44.24;101451.94;5036173;27;100097;-77
2023/05/11 08:16:59;;;;;;;1.85;1.58;;;;;;;23.66;43.92;101450.03;5056463;27;97247;-77
2023/05/11 08:19:26;;;;;;;1.50;1.40;;;;;;;23.66;44.33;101455.53;5054116;27;96861;-77
2023/05/11 08:21:52;;;;;;;1.67;1.52;;;;;;;23.66;44.45;101458.28;5057033;27;96821;-77
2023/05/11 08:24:19;;;;;;;1.38;1.23;;;;;;;23.66;44.14;101459.13;5054476;27;97802;-77
2023/05/11 08:26:46;;;;;;;1.83;1.63;;;;;;;23.67;44.25;101465.47;5056338;27;97392;-77
2023/05/11 08:29:12;;;;;;;1.63;1.52;;;;;;;23.66;44.46;101458.28;5056201;27;96607;-77
2023/05/11 08:31:39;;;;;;;1.90;1.60;;;;;;;23.66;44.05;101461.88;5056678;27;96987;-77
2023/05/11 08:34:07;;;;;;;2.00;1.70;;;;;;;23.67;44.40;101460.84;5055812;27;96850;-77
2023/05/11 08:36:44;;;;;;;1.60;1.50;;;;;;;23.66;44.04;101461.00;5053247;27;99055;-77
2023/05/11 08:39:11;;;;;;;2.35;1.85;;;;;;;23.66;44.24;101450.91;5055831;27;97076;-77
2023/05/11 08:41:37;;;;;;;2.00;1.60;;;;;;;23.66;44.20;101456.38;5053914;27;97265;-77
2023/05/11 08:44:05;;;;;;;2.08;1.85;;;;;;;23.67;44.26;101451.75;5050878;27;96850;-77
2023/05/11 08:46:34;;;;;;;1.85;1.55;;;;;;;23.67;44.07;101454.50;5053547;27;96988;-77
2023/05/11 08:49:01;;;;;;;1.80;1.60;;;;;;;23.68;44.34;101456.19;5056565;27;96687;-77
2023/05/11 08:51:28;;;;;;;2.53;1.58;;;;;;;23.67;44.77;101447.13;5055423;27;96672;-77
2023/05/11 08:53:56;;;;;;;2.05;1.77;;;;;;;23.68;44.17;101450.72;5053554;27;98193;-77
2023/05/11 08:56:25;;;;;;;3.05;1.90;;;;;;;23.69;44.28;101456.03;5056550;27;97456;-77
2023/05/11 08:58:56;;;;;;;2.70;1.70;;;;;;;23.68;44.16;101451.56;5037735;27;97929;-77
2023/05/11 09:01:27;;;;;;;1.95;1.75;;;;;;;23.69;44.27;101452.44;5041998;27;96977;-77
2023/05/11 09:03:55;;;;;;;1.75;1.60;;;;;;;23.68;44.32;101445.22;5035487;27;98009;-77
2023/05/11 09:06:23;;;;;;;2.20;1.83;;;;;;;23.69;44.07;101452.44;5031646;27;96802;-77
2023/05/11 09:08:50;;;;;;;2.00;1.70;;;;;;;23.69;44.39;101449.69;5056737;27;97575;-77
2023/05/11 09:11:17;;;;;;;1.80;1.63;;;;;;;23.69;44.21;101453.28;5055834;27;96658;-77
2023/05/11 09:13:43;;;;;;;2.63;1.92;;;;;;;23.69;44.13;101453.28;5037580;27;98758;-77
2023/05/11 09:16:10;;;;;;;2.30;1.70;;;;;;;23.69;44.15;101453.28;5055646;27;97323;-77
2023/05/11 09:19:00;;;;;;;2.00;1.80;;;;;;;23.69;44.21;101452.44;5041389;27;96924;-77
2023/05/11 09:21:29;;;;;;;2.97;1.80;;;;;;;23.70;44.32;101456.88;5036901;27;96919;-77
2023/05/11 09:23:58;;;;;;;2.35;1.80;;;;;;;23.70;44.20;101456.88;5020514;27;96890;-77
2023/05/11 09:26:27;;;;;;;2.30;2.10;;;;;;;23.69;43.92;101453.28;5055773;27;96646;-77
2023/05/11 09:28:58;;;;;;;3.80;1.98;;;;;;;23.71;44.44;101455.84;5053459;27;97673;-77
2023/05/11 09:31:43;;;;;;;2.50;2.30;;;;;;;23.70;44.15;101457.72;5026652;27;96578;-77
2023/05/11 09:34:21;;;;;;;2.25;1.98;;;;;;;23.70;44.18;101454.13;5042827;27;96803;-77
2023/05/11 09:36:53;;;;;;;2.63;2.00;;;;;;;23.69;44.34;101455.16;5038304;27;97837;-77
2023/05/11 09:39:30;;;;;;;2.15;1.95;;;;;;;23.69;44.32;101449.69;5038883;27;96794;-77
2023/05/11 09:42:17;;;;;;;2.45;2.25;;;;;;;23.69;44.06;101456.03;5019669;28;97864;-76
2023/05/11 09:44:45;;;;;;;2.25;1.90;;;;;;;23.68;44.25;101451.56;5034559;27;96833;-77
2023/05/11 09:47:14;;;;;;;2.10;1.90;;;;;;;23.68;44.17;101454.31;5058970;27;100472;-76
2023/05/11 09:49:43;;;;;;;3.20;2.20;;;;;;;23.69;44.16;101460.66;5040418;27;96715;-77
2023/05/11 09:52:10;;;;;;;2.45;2.25;;;;;;;23.70;44.42;101456.88;5055478;27;97141;-77
2023/05/11 09:54:50;;;;;;;3.05;2.40;;;;;;;23.69;44.40;101458.78;5054042;27;96896;-77
2023/05/11 09:57:30;;;;;;;2.63;2.42;;;;;;;23.69;44.32;101457.91;5053041;27;98223;-77
2023/05/11 09:59:58;;;;;;;2.95;2.63;;;;;;;23.68;44.20;101457.06;5039880;27;96842;-77
2023/05/11 10:02:30;;;;;;;2.83;2.40;;;;;;;23.68;44.07;101457.06;5054491;27;96721;-77
2023/05/11 10:05:00;;;;;;;3.28;2.70;;;;;;;23.68;44.08;101461.69;5054321;27;98035;-77
2023/05/11 10:07:28;;;;;;;3.70;3.00;;;;;;;23.68;44.34;101459.81;5037084;27;96618;-76
2023/05/11 10:09:58;;;;;;;3.63;2.60;;;;;;;23.68;44.35;101467.19;5045143;27;97229;-76
2023/05/11 10:12:26;;;;;;;3.20;2.90;;;;;;;23.68;44.28;101461.69;5054613;27;96885;-77
2023/05/11 10:15:00;;;;;;;3.35;2.80;;;;;;;23.68;44.25;101457.06;5054139;27;97246;-77
2023/05/11 10:17:27;;;;;;;5.55;3.25;;;;;;;23.67;44.11;101459.97;5055995;27;97044;-77
2023/05/11 10:19:55;;;;;;;3.17;2.80;;;;;;;23.67;44.09;101457.25;5051429;27;96712;-77
2023/05/11 10:22:27;;;;;;;3.10;2.80;;;;;;;23.67;44.26;101452.59;5047256;27;96932;-77
2023/05/11 10:24:56;;;;;;;3.75;2.58;;;;;;;23.67;44.14;101462.72;5031675;27;96946;-77
2023/05/11 10:27:24;;;;;;;3.58;3.20;;;;;;;23.67;44.32;101459.97;5047076;27;99915;-77
2023/05/11 10:29:51;;;;;;;3.42;3.13;;;;;;;23.67;44.21;101459.97;5040985;27;96655;-77
2023/05/11 10:32:19;;;;;;;3.35;2.97;;;;;;;23.67;44.36;101466.31;5052534;27;96997;-77
2023/05/11 10:34:46;;;;;;;4.40;3.10;;;;;;;23.66;44.29;101467.34;5040529;27;98230;-76
2023/05/11 10:37:15;;;;;;;3.33;2.95;;;;;;;23.66;44.43;101461.00;5047250;27;96810;-76
2023/05/11 10:39:43;;;;;;;3.53;3.00;;;;;;;23.66;44.35;101461.88;5041373;27;96590;-78
2023/05/11 10:42:48;;;;;;;4.03;3.40;;;;;;;23.65;44.12;101468.38;5051603;27;96823;-77
2023/05/11 10:45:22;;;;;;;6.90;3.30;;;;;;;23.65;44.23;101473.88;5041047;27;97389;-77
2023/05/11 10:47:49;;;;;;;3.90;3.50;;;;;;;23.64;44.35;101471.31;5053859;27;97045;-77
2023/05/11 10:50:28;;;;;;;3.70;3.28;;;;;;;23.64;44.30;101472.16;5048527;27;97366;-77
2023/05/11 10:53:17;;;;;;;3.42;3.13;;;;;;;23.64;44.21;101465.81;5044265;27;96963;-78
2023/05/11 10:56:01;;;;;;;3.60;3.30;;;;;;;23.63;44.25;101469.59;5047118;27;98203;-77
2023/05/11 10:58:56;;;;;;;4.60;3.00;;;;;;;23.62;44.11;101467.88;5050552;27;97601;-77
2023/05/11 11:01:40;;;;;;;3.08;2.78;;;;;;;23.61;44.06;101467.03;5054627;27;96659;-77
2023/05/11 11:04:09;;;;;;;3.75;3.45;;;;;;;23.61;44.39;101464.28;5025764;27;96972;-77
2023/05/11 11:06:41;;;;;;;4.93;3.35;;;;;;;23.62;44.31;101467.88;5048552;27;96777;-77
2023/05/11 11:09:12;;;;;;;3.40;2.85;;;;;;;23.62;44.24;101478.84;5051979;27;97403;-77
2023/05/11 11:11:41;;;;;;;3.60;3.20;;;;;;;23.62;44.30;101467.88;5053500;27;97367;-76
2023/05/11 11:14:09;;;;;;;3.58;3.00;;;;;;;23.62;44.02;101473.38;5051503;27;96988;-77
2023/05/11 11:16:36;;;;;;;4.68;3.47;;;;;;;23.61;44.54;101471.66;5054208;27;97727;-77
2023/05/11 11:19:28;;;;;;;3.38;3.08;;;;;;;23.62;44.18;101467.88;5052702;27;98532;-77
2023/05/11 11:21:55;;;;;;;3.38;3.08;;;;;;;23.60;44.30;101472.69;5042927;27;97338;-77
2023/05/11 11:24:37;;;;;;;3.75;3.40;;;;;;;23.61;44.21;101468.94;5052330;27;97006;-76
2023/05/11 11:27:05;;;;;;;3.72;3.42;;;;;;;23.59;44.34;101474.59;5047278;27;99407;-79
2023/05/11 11:29:34;;;;;;;3.15;2.85;;;;;;;23.60;44.21;101472.69;5045742;27;97511;-77
2023/05/11 11:32:18;;;;;;;4.45;3.28;;;;;;;23.61;44.39;101478.00;5044116;27;96907;-77
2023/05/11 11:34:46;;;;;;;3.97;3.40;;;;;;;23.59;44.31;101474.59;5039103;27;97321;-77